Time;durP1;ratioP1;P1;durP2;ratioP2;P2;SDS_P1;SDS_P2;PMS_P1;PMS_P2;Temp;Humidity;BMP_temperature;BMP_pressure;BME280_temperature;BME280_humidity;BME280_pressure;Samples;Min_cycle;Max_cycle;Signal;HPM_P1;HPM_P2
2023/12/17 00:00:39;;;;;;;6.40;4.72;;;;;;;-1.70;100.00;95019.94;2096839;28;20070;-79
2023/12/17 00:01:40;;;;;;;5.95;4.25;;;;;;;-1.80;100.00;95019.06;2077205;28;20026;-80
2023/12/17 00:02:41;;;;;;;5.78;4.55;;;;;;;-1.75;100.00;95022.66;2081336;28;20045;-80
2023/12/17 00:03:42;;;;;;;5.82;4.72;;;;;;;-1.67;100.00;95021.94;2080471;28;20502;-78
2023/12/17 00:04:43;;;;;;;6.38;4.50;;;;;;;-1.66;100.00;95021.69;2076417;28;20029;-81
2023/12/17 00:05:44;;;;;;;6.22;4.50;;;;;;;-1.66;100.00;95026.91;2085187;28;20080;-80
2023/12/17 00:06:45;;;;;;;4.85;4.35;;;;;;;-1.39;100.00;95025.34;2014371;28;20038;-79
2023/12/17 00:07:46;;;;;;;4.75;4.07;;;;;;;-1.41;100.00;95024.84;2008147;28;20032;-80
2023/12/17 00:08:48;;;;;;;5.47;4.68;;;;;;;-1.48;100.00;95021.88;2002663;28;20029;-79
2023/12/17 00:09:49;;;;;;;6.15;4.97;;;;;;;-1.46;100.00;95019.72;1992350;28;20034;-81
2023/12/17 00:10:50;;;;;;;5.90;4.30;;;;;;;-1.50;100.00;95027.38;1990030;28;20042;-78
2023/12/17 00:11:51;;;;;;;5.32;4.75;;;;;;;-1.54;100.00;95023.78;2004017;28;20128;-78
2023/12/17 00:12:52;;;;;;;5.22;4.38;;;;;;;-1.57;100.00;95022.56;2011522;28;20026;-81
2023/12/17 00:13:53;;;;;;;7.70;4.82;;;;;;;-1.68;100.00;95013.31;2012242;28;20035;-79
2023/12/17 00:14:54;;;;;;;5.57;4.78;;;;;;;-1.62;100.00;95024.50;2033705;28;20108;-80
2023/12/17 00:15:55;;;;;;;6.10;5.03;;;;;;;-1.76;100.00;95008.75;2040407;28;20024;-79
2023/12/17 00:16:56;;;;;;;4.45;4.05;;;;;;;-1.65;100.00;95019.81;2053833;28;20040;-81
2023/12/17 00:17:57;;;;;;;5.53;4.20;;;;;;;-1.66;100.00;95015.66;2064261;28;20033;-80
2023/12/17 00:18:58;;;;;;;6.45;4.38;;;;;;;-1.65;100.00;95010.13;2003194;28;20046;-79
2023/12/17 00:19:58;;;;;;;5.35;4.80;;;;;;;-1.56;100.00;95008.38;2004813;28;20998;-79
2023/12/17 00:20:59;;;;;;;5.90;4.15;;;;;;;-1.46;100.00;94998.75;2010726;28;20111;-78
2023/12/17 00:22:00;;;;;;;5.75;4.32;;;;;;;-1.35;100.00;94998.25;2015309;28;20037;-81
2023/12/17 00:23:04;;;;;;;5.20;4.28;;;;;;;-1.58;100.00;94992.16;2021692;28;20044;-79
2023/12/17 00:24:05;;;;;;;5.32;4.60;;;;;;;-1.49;100.00;94988.81;2024500;28;20037;-81
2023/12/17 00:25:06;;;;;;;6.22;3.95;;;;;;;-1.44;100.00;94999.25;2035051;28;20064;-81
2023/12/17 00:26:07;;;;;;;5.55;3.85;;;;;;;-1.58;100.00;94992.16;2041120;28;20818;-79
2023/12/17 00:27:09;;;;;;;5.38;4.50;;;;;;;-1.49;100.00;94984.38;2052212;28;20040;-78
2023/12/17 00:28:10;;;;;;;5.85;4.38;;;;;;;-1.60;100.00;94986.41;2048882;28;20591;-80
2023/12/17 00:29:11;;;;;;;4.90;4.32;;;;;;;-1.61;100.00;94994.59;2044330;28;20044;-80
2023/12/17 00:30:12;;;;;;;5.68;4.85;;;;;;;-1.60;100.00;94986.41;2057319;28;20104;-79
2023/12/17 00:31:13;;;;;;;4.38;3.92;;;;;;;-1.62;100.00;94983.31;2070345;28;20392;-79
2023/12/17 00:32:14;;;;;;;4.55;3.78;;;;;;;-1.63;100.00;94978.34;2064214;28;20032;-80
2023/12/17 00:33:15;;;;;;;5.70;4.05;;;;;;;-1.54;100.00;94982.66;2055684;28;20418;-78
2023/12/17 00:34:16;;;;;;;5.30;4.03;;;;;;;-1.53;100.00;94976.31;2082231;28;20032;-79
2023/12/17 00:35:18;;;;;;;5.72;3.80;;;;;;;-1.50;100.00;94985.44;2105433;28;21459;-80
2023/12/17 00:36:19;;;;;;;5.18;4.00;;;;;;;-1.55;100.00;94973.19;2097701;28;20151;-79
2023/12/17 00:37:20;;;;;;;4.60;4.05;;;;;;;-1.42;100.00;94989.22;2097808;28;20046;-81
2023/12/17 00:38:21;;;;;;;5.22;4.40;;;;;;;-1.35;100.00;94982.50;2089315;28;20198;-80
2023/12/17 00:39:22;;;;;;;5.53;3.63;;;;;;;-1.45;100.00;94984.56;2089906;28;20021;-79
2023/12/17 00:40:22;;;;;;;4.75;3.97;;;;;;;-1.55;100.00;94985.53;2107169;28;20737;-79
2023/12/17 00:41:23;;;;;;;4.30;3.83;;;;;;;-1.54;100.00;94981.84;2088874;28;20021;-81
2023/12/17 00:42:24;;;;;;;5.20;3.83;;;;;;;-1.56;100.00;94976.91;2089406;28;20025;-80
2023/12/17 00:43:25;;;;;;;4.55;3.63;;;;;;;-1.67;100.00;94977.38;2081343;28;20116;-80
2023/12/17 00:44:26;;;;;;;4.85;4.00;;;;;;;-1.69;100.00;94974.28;2089763;28;20044;-81
2023/12/17 00:45:27;;;;;;;4.38;3.40;;;;;;;-1.61;100.00;94979.63;2094310;28;20020;-79
2023/12/17 00:46:28;;;;;;;6.18;4.10;;;;;;;-1.63;100.00;94979.13;2081503;28;20091;-78
2023/12/17 00:47:29;;;;;;;4.70;3.70;;;;;;;-1.75;100.00;94981.47;2079670;28;20033;-80
2023/12/17 00:48:30;;;;;;;4.32;3.72;;;;;;;-1.77;100.00;94968.66;2081523;28;20037;-78
2023/12/17 00:49:30;;;;;;;3.80;3.20;;;;;;;-1.78;100.00;94972.34;2091616;28;20044;-80
2023/12/17 00:50:31;;;;;;;5.00;3.80;;;;;;;-1.68;100.00;94973.22;2085291;28;20045;-80
2023/12/17 00:51:34;;;;;;;4.55;3.67;;;;;;;-1.63;100.00;94970.50;2093251;28;20032;-78
2023/12/17 00:52:35;;;;;;;4.13;3.28;;;;;;;-1.40;100.00;94969.50;2097886;28;20082;-79
2023/12/17 00:53:36;;;;;;;5.53;3.75;;;;;;;-1.40;100.00;94968.75;2089200;28;20652;-78
2023/12/17 00:54:37;;;;;;;6.05;3.42;;;;;;;-1.43;100.00;94970.09;2089844;28;20025;-81
2023/12/17 00:55:38;;;;;;;5.55;4.30;;;;;;;-1.42;100.00;94971.63;2087500;28;20017;-81
2023/12/17 00:56:39;;;;;;;3.67;3.30;;;;;;;-1.58;100.00;94967.75;2086713;28;20025;-78
2023/12/17 00:57:40;;;;;;;3.55;3.05;;;;;;;-1.69;100.00;94974.28;2097900;28;20024;-80
2023/12/17 00:58:40;;;;;;;3.80;3.40;;;;;;;-1.71;100.00;94973.78;2105783;28;20024;-80
2023/12/17 00:59:41;;;;;;;5.60;3.75;;;;;;;-1.76;100.00;94964.19;2097487;28;20024;-80
2023/12/17 01:00:42;;;;;;;5.07;3.40;;;;;;;-1.67;100.00;94974.75;2089727;28;20392;-78
2023/12/17 01:01:43;;;;;;;5.70;3.20;;;;;;;-1.62;100.00;94975.47;2095030;28;20047;-79
2023/12/17 01:02:45;;;;;;;4.90;3.25;;;;;;;-1.57;100.00;94971.97;2089661;28;20373;-80
2023/12/17 01:03:46;;;;;;;5.82;3.47;;;;;;;-1.58;100.00;94975.63;2087808;28;20044;-79
2023/12/17 01:04:47;;;;;;;4.75;3.15;;;;;;;-1.57;100.00;94977.97;2075653;28;20437;-79
2023/12/17 01:05:48;;;;;;;7.72;3.22;;;;;;;-1.68;100.00;94976.59;2088922;28;20024;-80
2023/12/17 01:06:49;;;;;;;5.93;3.53;;;;;;;-1.69;100.00;94980.31;2089340;28;20032;-77
2023/12/17 01:07:50;;;;;;;4.72;3.28;;;;;;;-1.66;100.00;94987.59;2088936;28;20039;-81
2023/12/17 01:08:51;;;;;;;3.78;3.20;;;;;;;-1.88;100.00;94993.50;2084322;28;20560;-78
2023/12/17 01:09:52;;;;;;;4.72;3.50;;;;;;;-1.91;100.00;94988.06;2089256;28;20036;-79
2023/12/17 01:10:53;;;;;;;4.25;3.15;;;;;;;-1.71;100.00;94986.91;2096777;28;20021;-80
2023/12/17 01:11:57;;;;;;;3.97;3.10;;;;;;;-1.57;100.00;94983.22;2089590;28;20111;-79
2023/12/17 01:12:58;;;;;;;5.18;3.17;;;;;;;-1.56;100.00;94984.75;2074135;28;20496;-78
2023/12/17 01:13:59;;;;;;;3.83;3.00;;;;;;;-1.53;100.00;94986.81;2089674;28;20028;-79
2023/12/17 01:15:00;;;;;;;4.25;3.33;;;;;;;-1.62;100.00;94983.31;2106987;28;20106;-79
2023/12/17 01:16:01;;;;;;;5.32;3.20;;;;;;;-1.72;100.00;94980.88;2089325;28;20025;-79
2023/12/17 01:17:03;;;;;;;5.00;3.25;;;;;;;-1.67;100.00;94982.63;2089251;28;20024;-80
2023/12/17 01:18:04;;;;;;;3.67;2.83;;;;;;;-1.64;100.00;94974.19;2097425;28;20028;-78
2023/12/17 01:19:05;;;;;;;5.93;3.42;;;;;;;-1.65;100.00;94978.66;2086148;28;20630;-78
2023/12/17 01:20:08;;;;;;;5.03;3.30;;;;;;;-1.62;100.00;94983.31;2073246;28;20040;-79
2023/12/17 01:21:09;;;;;;;4.88;3.22;;;;;;;-1.61;100.00;94984.88;2086220;28;20041;-80
2023/12/17 01:22:09;;;;;;;5.78;3.53;;;;;;;-1.64;100.00;94982.81;2089566;28;20025;-78
2023/12/17 01:23:11;;;;;;;5.00;3.15;;;;;;;-1.65;100.00;94989.16;2089400;28;20024;-80
2023/12/17 01:24:12;;;;;;;4.93;3.30;;;;;;;-1.68;100.00;94989.72;2089451;28;20115;-79
2023/12/17 01:25:13;;;;;;;5.78;3.47;;;;;;;-1.69;100.00;94992.63;2095320;28;20024;-80
2023/12/17 01:26:19;;;;;;;4.57;3.28;;;;;;;-1.55;100.00;94993.41;2091258;28;20036;-78
2023/12/17 01:27:20;;;;;;;4.95;3.65;;;;;;;-1.60;100.00;94994.28;2089881;28;20024;-79
2023/12/17 01:28:21;;;;;;;3.97;2.97;;;;;;;-1.60;100.00;94989.03;2081388;28;20052;-79
2023/12/17 01:29:22;;;;;;;3.80;3.40;;;;;;;-1.68;100.00;94992.34;2079931;28;20085;-81
2023/12/17 01:30:23;;;;;;;4.65;3.15;;;;;;;-1.68;100.00;94999.44;2080541;28;20053;-78
2023/12/17 01:31:35;;;;;;;4.50;3.22;;;;;;;-1.65;100.00;95004.09;2081071;28;20026;-78
2023/12/17 01:32:36;;;;;;;4.15;3.15;;;;;;;-1.71;100.00;95003.44;2085448;28;20071;-77
2023/12/17 01:33:39;;;;;;;4.82;3.38;;;;;;;-1.70;100.00;94997.09;2081187;28;20092;-80
2023/12/17 01:34:40;;;;;;;3.63;2.97;;;;;;;-1.73;100.00;95002.91;2080942;28;20033;-78
2023/12/17 01:35:41;;;;;;;6.28;3.28;;;;;;;-1.69;100.00;95005.75;2080014;28;20021;-78
2023/12/17 01:36:41;;;;;;;4.18;3.33;;;;;;;-1.67;100.00;95007.00;2072723;28;20717;-82
2023/12/17 01:37:42;;;;;;;4.30;3.25;;;;;;;-1.65;100.00;95004.88;2080784;28;20215;-81
2023/12/17 01:38:44;;;;;;;5.68;3.90;;;;;;;-1.72;100.00;95001.84;2097065;28;20017;-78
2023/12/17 01:39:45;;;;;;;6.07;3.65;;;;;;;-1.78;100.00;95008.25;2096429;28;20112;-80
2023/12/17 01:40:46;;;;;;;5.03;3.67;;;;;;;-1.74;100.00;95013.72;2089417;28;20029;-80
2023/12/17 01:41:46;;;;;;;5.43;3.63;;;;;;;-1.84;100.00;95006.81;2080710;28;20032;-78
2023/12/17 01:42:47;;;;;;;5.45;3.72;;;;;;;-1.81;100.00;95014.06;2081242;28;20026;-79
2023/12/17 01:43:48;;;;;;;4.43;3.13;;;;;;;-1.97;100.00;95018.06;2072441;28;20028;-78
2023/12/17 01:44:49;;;;;;;5.60;3.63;;;;;;;-1.87;100.00;95012.63;2072529;28;20032;-80
2023/12/17 01:45:52;;;;;;;4.72;3.63;;;;;;;-1.85;100.00;95026.22;2080775;28;20559;-78
2023/12/17 01:46:53;;;;;;;8.35;3.50;;;;;;;-1.92;100.00;95023.22;2080203;28;20029;-78
2023/12/17 01:47:55;;;;;;;4.15;3.05;;;;;;;-1.89;100.00;95022.59;2080720;28;20520;-81
2023/12/17 01:48:56;;;;;;;3.55;2.95;;;;;;;-1.90;100.00;95027.06;2088352;28;20029;-80
2023/12/17 01:49:57;;;;;;;3.78;3.10;;;;;;;-2.04;100.00;95026.28;2097460;28;20024;-80
2023/12/17 01:50:58;;;;;;;5.07;3.60;;;;;;;-2.10;100.00;95035.31;2080700;28;20067;-79
2023/12/17 01:52:00;;;;;;;3.30;2.95;;;;;;;-2.05;100.00;95032.59;2067057;28;20026;-79
2023/12/17 01:53:02;;;;;;;5.57;3.13;;;;;;;-2.00;100.00;95029.88;2072779;28;20565;-77
2023/12/17 01:54:03;;;;;;;4.07;2.90;;;;;;;-1.98;100.00;95030.34;2073162;28;20032;-80
2023/12/17 01:55:05;;;;;;;4.28;3.03;;;;;;;-2.03;100.00;95031.22;2089393;28;20025;-80
2023/12/17 01:56:07;;;;;;;4.35;3.08;;;;;;;-2.01;100.00;95032.81;2087907;28;20396;-77
2023/12/17 01:57:08;;;;;;;4.22;3.35;;;;;;;-2.11;100.00;95034.53;2089085;28;20029;-77
2023/12/17 01:58:10;;;;;;;4.93;3.38;;;;;;;-2.07;100.00;95032.88;2089032;28;20036;-80
2023/12/17 01:59:11;;;;;;;4.95;3.17;;;;;;;-2.00;100.00;95031.72;2079830;28;20059;-78
2023/12/17 02:00:13;;;;;;;8.13;3.70;;;;;;;-2.01;100.00;95030.19;2079528;28;20044;-79
2023/12/17 02:01:13;;;;;;;5.43;3.17;;;;;;;-1.94;100.00;95033.97;2064746;28;20054;-79
2023/12/17 02:02:15;;;;;;;4.55;3.00;;;;;;;-1.97;100.00;95039.78;2064140;28;20038;-80
2023/12/17 02:03:16;;;;;;;5.68;3.53;;;;;;;-2.06;100.00;95034.44;2079320;28;20075;-79
2023/12/17 02:04:20;;;;;;;3.88;2.88;;;;;;;-2.09;100.00;95032.38;2081206;28;20025;-79
2023/12/17 02:05:21;;;;;;;4.78;3.00;;;;;;;-2.19;100.00;95031.78;2073017;28;20026;-77
2023/12/17 02:06:24;;;;;;;4.28;2.97;;;;;;;-2.13;100.00;95039.25;2072682;28;20037;-80
2023/12/17 02:07:25;;;;;;;5.93;3.53;;;;;;;-2.03;100.00;95031.22;2080751;28;20032;-80
2023/12/17 02:08:26;;;;;;;7.00;2.78;;;;;;;-2.01;100.00;95036.19;2080101;28;20060;-80
2023/12/17 02:09:27;;;;;;;4.18;3.22;;;;;;;-2.07;100.00;95032.88;2093874;28;20027;-79
2023/12/17 02:10:29;;;;;;;5.43;3.22;;;;;;;-2.11;100.00;95037.16;2089244;28;20029;-80
2023/12/17 02:11:30;;;;;;;4.68;3.47;;;;;;;-2.16;100.00;95034.59;2079738;28;20597;-80
2023/12/17 02:12:31;;;;;;;4.40;2.95;;;;;;;-2.20;100.00;95032.84;2080842;28;20025;-78
2023/12/17 02:13:32;;;;;;;4.45;3.13;;;;;;;-2.14;100.00;95035.09;2081091;28;20025;-78
2023/12/17 02:14:33;;;;;;;5.05;3.40;;;;;;;-2.06;100.00;95033.66;2080427;28;20040;-78
2023/12/17 02:15:34;;;;;;;4.75;3.75;;;;;;;-2.09;100.00;95037.63;2064677;28;20114;-77
2023/12/17 02:16:35;;;;;;;3.92;2.63;;;;;;;-2.06;100.00;95031.81;2064201;28;20602;-80
2023/12/17 02:17:35;;;;;;;3.67;3.00;;;;;;;-2.04;100.00;95037.53;2064037;28;20054;-77
2023/12/17 02:18:36;;;;;;;3.90;2.90;;;;;;;-1.98;100.00;95038.22;2065202;28;20049;-78
2023/12/17 02:19:37;;;;;;;5.85;3.00;;;;;;;-2.06;100.00;95033.66;2080867;28;20127;-80
2023/12/17 02:20:39;;;;;;;3.80;3.15;;;;;;;-2.06;100.00;95026.59;2074326;28;20050;-78
2023/12/17 02:21:40;;;;;;;4.57;3.20;;;;;;;-2.07;100.00;95032.09;2072752;28;20053;-80
2023/12/17 02:22:42;;;;;;;4.07;3.17;;;;;;;-2.05;100.00;95022.88;2078629;28;20049;-78
2023/12/17 02:25:02;;;;;;;;;;;;;;;-2.72;100.00;95026.84;2148078;27;20109;-78
2023/12/17 02:26:03;;;;;;;5.85;3.30;;;;;;;-2.60;100.00;95025.34;2114552;28;19951;-78
2023/12/17 02:27:04;;;;;;;3.72;3.35;;;;;;;-2.56;100.00;95022.94;2112976;27;20453;-80
2023/12/17 02:28:05;;;;;;;4.13;3.60;;;;;;;-2.51;100.00;95025.47;2121534;28;20081;-79
2023/12/17 02:29:13;;;;;;;5.18;3.67;;;;;;;-2.51;100.00;95029.94;2114335;27;20015;-79
2023/12/17 02:30:13;;;;;;;3.83;3.10;;;;;;;-2.50;100.00;95024.44;2130362;27;20027;-81
2023/12/17 02:31:14;;;;;;;5.43;3.70;;;;;;;-2.48;100.00;95024.91;2128253;27;20509;-79
2023/12/17 02:32:21;;;;;;;6.45;4.05;;;;;;;-2.51;100.00;95019.47;2112756;28;20035;-79
2023/12/17 02:33:22;;;;;;;4.40;3.47;;;;;;;-2.54;100.00;95023.44;2110571;28;20031;-78
2023/12/17 02:34:22;;;;;;;4.35;3.50;;;;;;;-2.54;100.00;95018.22;2107835;28;20017;-81
2023/12/17 02:35:25;;;;;;;5.20;4.13;;;;;;;-2.49;100.00;95019.97;2120449;27;20030;-80
2023/12/17 02:36:26;;;;;;;4.68;3.25;;;;;;;-2.47;100.00;95023.06;2129458;27;20126;-79
2023/12/17 02:37:27;;;;;;;4.25;3.38;;;;;;;-2.45;100.00;95026.19;2113291;28;20028;-80
2023/12/17 02:38:28;;;;;;;5.38;3.38;;;;;;;-2.37;100.00;95028.13;2112247;28;20119;-80
2023/12/17 02:39:29;;;;;;;3.35;3.00;;;;;;;-2.42;100.00;95028.22;2121562;28;20035;-80
2023/12/17 02:40:29;;;;;;;5.07;3.50;;;;;;;-2.43;100.00;95026.66;2121459;28;20027;-81
2023/12/17 02:41:30;;;;;;;6.50;3.70;;;;;;;-2.36;100.00;95032.31;2129845;27;20027;-80
2023/12/17 02:42:31;;;;;;;4.35;3.60;;;;;;;-2.46;100.00;95028.00;2121069;28;20038;-81
2023/12/17 02:43:32;;;;;;;4.05;3.47;;;;;;;-2.38;100.00;95029.19;2116396;28;20016;-82
2023/12/17 02:44:33;;;;;;;6.43;3.70;;;;;;;-2.36;100.00;95024.47;2117211;28;20033;-81
2023/12/17 02:45:34;;;;;;;5.20;3.33;;;;;;;-2.31;100.00;95027.78;2107861;28;20017;-80
2023/12/17 02:46:35;;;;;;;3.50;3.20;;;;;;;-2.38;100.00;95027.34;2117905;27;20058;-79
2023/12/17 02:47:36;;;;;;;4.18;3.70;;;;;;;-2.35;100.00;95026.00;2112075;28;20016;-78
2023/12/17 02:48:39;;;;;;;4.30;3.35;;;;;;;-2.38;100.00;95016.88;2109694;28;20031;-80
2023/12/17 02:49:41;;;;;;;4.60;3.33;;;;;;;-2.45;100.00;95021.72;2107864;28;20016;-81
2023/12/17 02:50:42;;;;;;;4.60;3.08;;;;;;;-2.53;100.00;95031.00;2115899;28;20036;-81
2023/12/17 02:51:43;;;;;;;5.35;3.13;;;;;;;-2.49;100.00;95027.81;2112900;28;20472;-79
2023/12/17 02:52:44;;;;;;;4.70;3.58;;;;;;;-2.49;100.00;95027.81;2121699;27;20031;-78
2023/12/17 02:53:45;;;;;;;4.60;3.05;;;;;;;-2.42;100.00;95029.00;2115031;28;20541;-82
2023/12/17 02:54:48;;;;;;;4.88;2.80;;;;;;;-2.45;100.00;95036.66;2101330;28;20021;-78
2023/12/17 02:55:49;;;;;;;4.55;3.00;;;;;;;-2.49;100.00;95025.19;2105317;28;20031;-80
2023/12/17 02:56:53;;;;;;;4.75;3.20;;;;;;;-2.47;100.00;95030.91;2111875;28;20024;-81
2023/12/17 02:57:54;;;;;;;4.10;3.15;;;;;;;-2.46;100.00;95032.47;2108857;28;20032;-82
2023/12/17 02:58:55;;;;;;;4.30;2.97;;;;;;;-2.38;100.00;95034.44;2112250;28;20024;-80
2023/12/17 02:59:55;;;;;;;3.33;3.00;;;;;;;-2.35;100.00;95028.63;2119552;27;20500;-81
2023/12/17 03:00:56;;;;;;;2.95;2.63;;;;;;;-2.40;100.00;95029.50;2115220;28;20024;-79
2023/12/17 03:01:57;;;;;;;4.43;3.10;;;;;;;-2.41;100.00;95029.78;2106703;28;20027;-81
2023/12/17 03:02:58;;;;;;;3.67;3.13;;;;;;;-2.47;100.00;95029.06;2112238;27;20020;-79
2023/12/17 03:03:59;;;;;;;6.60;3.20;;;;;;;-2.56;100.00;95026.31;2123614;27;20552;-79
2023/12/17 03:05:00;;;;;;;4.10;3.20;;;;;;;-2.41;100.00;95029.78;2115049;27;20034;-79
2023/12/17 03:06:01;;;;;;;5.78;2.90;;;;;;;-2.47;100.00;95026.47;2129202;27;20076;-82
2023/12/17 03:07:20;;;;;;;3.40;2.70;;;;;;;-2.46;100.00;95027.22;2121043;28;20015;-79
2023/12/17 03:08:21;;;;;;;3.60;3.07;;;;;;;-2.56;100.00;95026.31;2121325;27;20024;-81
2023/12/17 03:09:22;;;;;;;3.05;2.72;;;;;;;-2.57;100.00;95027.41;2126053;27;20500;-80
2023/12/17 03:10:23;;;;;;;4.40;3.08;;;;;;;-2.48;100.00;95029.38;2121354;27;20098;-77
2023/12/17 03:11:24;;;;;;;3.63;3.28;;;;;;;-2.43;100.00;95030.06;2115417;28;20023;-79
2023/12/17 03:12:25;;;;;;;4.65;3.08;;;;;;;-2.45;100.00;95026.19;2103949;28;20039;-80
2023/12/17 03:13:26;;;;;;;3.78;2.97;;;;;;;-2.54;100.00;95023.44;2104385;28;20020;-80
2023/12/17 03:14:27;;;;;;;4.30;2.97;;;;;;;-2.57;100.00;95021.38;2112202;28;20074;-81
2023/12/17 03:15:28;;;;;;;6.25;3.70;;;;;;;-2.60;100.00;95022.72;2112560;28;20024;-80
2023/12/17 03:16:29;;;;;;;4.05;3.05;;;;;;;-2.62;100.00;95019.63;2112349;28;20057;-80
2023/12/17 03:17:30;;;;;;;4.72;2.90;;;;;;;-2.59;100.00;95013.03;2114652;28;20077;-81
2023/12/17 03:18:31;;;;;;;3.88;2.95;;;;;;;-2.68;100.00;95025.22;2128445;27;20022;-81
2023/12/17 03:19:32;;;;;;;4.60;2.92;;;;;;;-2.73;100.00;95020.81;2115733;27;20396;-81
2023/12/17 03:20:33;;;;;;;4.50;2.70;;;;;;;-2.73;100.00;95023.44;2108711;27;20024;-81
2023/12/17 03:21:34;;;;;;;3.72;2.70;;;;;;;-2.63;100.00;95031.16;2117526;27;20024;-79
2023/12/17 03:22:35;;;;;;;3.28;2.80;;;;;;;-2.66;100.00;95033.56;2112662;28;20116;-78
2023/12/17 03:23:36;;;;;;;3.53;2.72;;;;;;;-2.73;100.00;95035.75;2111600;28;20027;-78
2023/12/17 03:24:37;;;;;;;4.03;2.80;;;;;;;-2.67;100.00;95032.03;2112066;28;20055;-81
2023/12/17 03:25:38;;;;;;;3.17;2.75;;;;;;;-2.67;100.00;95034.63;2113083;28;20312;-80
2023/12/17 03:26:38;;;;;;;4.68;3.20;;;;;;;-2.73;100.00;95036.53;2116510;27;20035;-82
2023/12/17 03:27:47;;;;;;;4.20;3.30;;;;;;;-2.66;100.00;95033.56;2112558;28;20023;-81
2023/12/17 03:28:48;;;;;;;3.80;2.78;;;;;;;-2.66;100.00;95033.56;2106687;28;20379;-82
2023/12/17 03:29:50;;;;;;;3.80;2.40;;;;;;;-2.71;100.00;95038.88;2115599;27;20076;-81
2023/12/17 03:30:51;;;;;;;3.75;2.78;;;;;;;-2.72;100.00;95034.69;2102468;28;20358;-80
2023/12/17 03:31:52;;;;;;;3.53;2.80;;;;;;;-2.78;100.00;95032.16;2104265;28;20054;-80
2023/12/17 03:32:53;;;;;;;3.47;2.70;;;;;;;-2.87;100.00;95028.63;2113441;27;20122;-79
2023/12/17 03:33:53;;;;;;;2.67;2.40;;;;;;;-2.90;100.00;95034.41;2127112;27;20024;-81
2023/12/17 03:34:54;;;;;;;4.32;3.13;;;;;;;-2.78;100.00;95031.38;2127027;27;20015;-79
2023/12/17 03:35:55;;;;;;;3.22;2.55;;;;;;;-2.79;100.00;95030.59;2124985;27;20344;-81
2023/12/17 03:36:56;;;;;;;3.28;2.70;;;;;;;-2.98;100.00;95024.59;2114841;28;20606;-81
2023/12/17 03:37:57;;;;;;;7.93;2.97;;;;;;;-2.91;100.00;95034.69;2132064;27;20526;-81
2023/12/17 03:38:58;;;;;;;4.03;2.53;;;;;;;-2.83;100.00;95024.38;2119027;27;20060;-80
2023/12/17 03:39:59;;;;;;;3.28;2.53;;;;;;;-2.73;100.00;95025.28;2115538;27;20031;-81
2023/12/17 03:41:00;;;;;;;3.85;2.50;;;;;;;-2.80;100.00;95021.19;2123681;27;20023;-80
2023/12/17 03:42:01;;;;;;;3.63;3.00;;;;;;;-2.73;100.00;95020.81;2132062;27;20479;-79
2023/12/17 03:43:02;;;;;;;3.08;2.60;;;;;;;-2.80;100.00;95021.19;2132134;27;20034;-80
2023/12/17 03:44:03;;;;;;;2.67;2.47;;;;;;;-2.75;100.00;95022.19;2123944;27;20043;-79
2023/12/17 03:45:04;;;;;;;4.35;2.97;;;;;;;-2.66;100.00;95025.72;2114846;28;20110;-81
2023/12/17 03:46:05;;;;;;;4.13;2.85;;;;;;;-2.75;100.00;95022.97;2116029;27;20023;-80
2023/12/17 03:47:06;;;;;;;2.90;2.50;;;;;;;-2.70;100.00;95027.34;2130810;27;20101;-82
2023/12/17 03:48:17;;;;;;;4.07;2.83;;;;;;;-2.78;100.00;95021.69;2106557;28;20023;-78
2023/12/17 03:49:17;;;;;;;3.80;2.60;;;;;;;-2.88;100.00;95024.44;2115037;28;20035;-81
2023/12/17 03:50:19;;;;;;;3.28;2.53;;;;;;;-2.95;100.00;95013.56;2117208;27;20031;-81
2023/12/17 03:51:22;;;;;;;4.68;3.03;;;;;;;-2.89;100.00;95019.50;2110540;28;20042;-79
2023/12/17 03:52:23;;;;;;;3.20;2.65;;;;;;;-2.87;100.00;95017.38;2107069;28;20031;-78
2023/12/17 03:53:23;;;;;;;4.47;3.20;;;;;;;-2.89;100.00;95012.44;2106828;28;20028;-80
2023/12/17 03:54:24;;;;;;;3.50;2.65;;;;;;;-2.83;100.00;95019.13;2115163;27;20016;-80
2023/12/17 03:55:25;;;;;;;3.40;2.50;;;;;;;-2.86;100.00;95017.09;2122913;27;20099;-79
2023/12/17 03:56:26;;;;;;;5.05;3.00;;;;;;;-2.83;100.00;95018.38;2114466;27;20045;-78
2023/12/17 03:57:27;;;;;;;3.75;2.67;;;;;;;-2.99;100.00;95020.41;2111577;28;20483;-81
2023/12/17 03:58:30;;;;;;;3.45;2.42;;;;;;;-2.93;100.00;95021.13;2102486;27;20024;-79
2023/12/17 03:59:31;;;;;;;3.83;2.53;;;;;;;-2.96;100.00;95022.47;2113678;28;20027;-78
2023/12/17 04:00:32;;;;;;;3.15;2.10;;;;;;;-2.95;100.00;95024.00;2097312;28;20024;-78
2023/12/17 04:01:33;;;;;;;3.10;2.22;;;;;;;-2.85;100.00;95025.72;2106582;28;20024;-80
2023/12/17 04:02:34;;;;;;;3.28;2.58;;;;;;;-2.87;100.00;95027.84;2123097;27;20386;-82
2023/12/17 04:03:36;;;;;;;3.33;2.30;;;;;;;-2.89;100.00;95017.66;2117114;27;20020;-79
2023/12/17 04:04:37;;;;;;;4.80;2.72;;;;;;;-2.81;100.00;95022.28;2119090;27;20026;-80
2023/12/17 04:05:38;;;;;;;5.60;3.05;;;;;;;-2.85;100.00;95018.66;2114867;28;20074;-79
2023/12/17 04:06:43;;;;;;;3.70;2.50;;;;;;;-2.83;100.00;95018.38;2097602;28;20115;-80
2023/12/17 04:07:44;;;;;;;4.78;2.83;;;;;;;-2.91;100.00;95014.53;2115614;27;20019;-79
2023/12/17 04:08:52;;;;;;;3.22;2.35;;;;;;;-2.84;100.00;95019.44;2122612;27;20046;-80
2023/12/17 04:09:53;;;;;;;3.25;2.95;;;;;;;-2.89;100.00;95012.44;2116155;27;20024;-78
2023/12/17 04:10:54;;;;;;;4.30;2.55;;;;;;;-2.97;100.00;95009.69;2115075;28;20468;-81
2023/12/17 04:11:55;;;;;;;5.72;3.55;;;;;;;-2.93;100.00;95008.84;2105631;28;20048;-81
2023/12/17 04:12:56;;;;;;;2.63;2.40;;;;;;;-2.86;100.00;95009.22;2118825;27;20030;-80
2023/12/17 04:13:57;;;;;;;3.78;2.85;;;;;;;-2.79;100.00;95012.28;2123251;27;20488;-80
2023/12/17 04:14:58;;;;;;;3.50;2.35;;;;;;;-2.91;100.00;95014.53;2109694;28;20075;-82
2023/12/17 04:15:58;;;;;;;3.42;2.08;;;;;;;-2.84;100.00;95014.19;2118530;27;20788;-79
2023/12/17 04:17:03;;;;;;;3.47;2.40;;;;;;;-2.98;100.00;95016.75;2114741;28;20406;-80
2023/12/17 04:18:04;;;;;;;3.78;2.63;;;;;;;-2.90;100.00;95021.31;2114594;28;20185;-81
2023/12/17 04:19:05;;;;;;;3.35;2.40;;;;;;;-2.93;100.00;95019.28;2116813;27;20065;-80
2023/12/17 04:20:06;;;;;;;4.05;2.75;;;;;;;-2.90;100.00;95013.47;2114989;28;20024;-81
2023/12/17 04:21:07;;;;;;;4.05;2.58;;;;;;;-3.01;100.00;95016.53;2111933;27;20744;-79
2023/12/17 04:22:08;;;;;;;3.83;2.75;;;;;;;-2.98;100.00;95015.97;2119008;27;20019;-80
2023/12/17 04:23:09;;;;;;;3.65;2.92;;;;;;;-2.95;100.00;95013.56;2119009;27;20027;-79
2023/12/17 04:24:10;;;;;;;3.22;2.65;;;;;;;-2.89;100.00;95011.66;2121997;27;20046;-81
2023/12/17 04:25:11;;;;;;;4.18;2.35;;;;;;;-2.89;100.00;95014.28;2123352;27;20046;-81
2023/12/17 04:26:12;;;;;;;4.63;3.00;;;;;;;-2.89;100.00;95016.91;2116349;27;20495;-79
2023/12/17 04:27:13;;;;;;;3.00;2.60;;;;;;;-2.95;100.00;95012.78;2114328;27;20099;-80
2023/12/17 04:28:14;;;;;;;4.05;2.65;;;;;;;-2.95;100.00;95016.16;2106825;28;20019;-81
2023/12/17 04:29:15;;;;;;;4.90;2.78;;;;;;;-2.98;100.00;95005.50;2106385;28;20066;-81
2023/12/17 04:30:15;;;;;;;5.22;2.72;;;;;;;-3.06;100.00;95006.91;2106489;28;20027;-81
2023/12/17 04:31:16;;;;;;;3.55;2.67;;;;;;;-2.95;100.00;95000.47;2103344;28;20032;-82
2023/12/17 04:32:17;;;;;;;3.20;2.45;;;;;;;-2.89;100.00;95004.59;2109159;27;21660;-80
2023/12/17 04:33:18;;;;;;;3.63;2.72;;;;;;;-2.83;100.00;95000.81;2114492;28;20051;-80
2023/12/17 04:34:19;;;;;;;3.80;2.83;;;;;;;-2.95;100.00;95000.47;2109349;28;20036;-80
2023/12/17 04:35:20;;;;;;;4.00;2.92;;;;;;;-2.89;100.00;94998.59;2114937;28;20019;-81
2023/12/17 04:36:21;;;;;;;4.05;2.78;;;;;;;-2.88;100.00;95000.91;2113483;28;20757;-80
2023/12/17 04:37:22;;;;;;;4.93;3.05;;;;;;;-2.84;100.00;95004.50;2114512;28;20023;-81
2023/12/17 04:38:23;;;;;;;5.35;3.65;;;;;;;-2.88;100.00;95008.75;2122777;27;20019;-81
2023/12/17 04:39:24;;;;;;;4.20;3.17;;;;;;;-2.97;100.00;95004.44;2123743;27;20481;-79
2023/12/17 04:40:34;;;;;;;4.47;3.03;;;;;;;-3.08;100.00;95009.81;2123964;27;20019;-81
2023/12/17 04:41:36;;;;;;;4.80;2.95;;;;;;;-2.99;100.00;95004.72;2120136;27;20030;-81
2023/12/17 04:42:37;;;;;;;3.58;2.70;;;;;;;-2.98;100.00;94997.66;2114620;27;20023;-82
2023/12/17 04:43:38;;;;;;;3.92;2.70;;;;;;;-2.90;100.00;95003.00;2121920;27;20046;-81
2023/12/17 04:44:39;;;;;;;3.45;2.60;;;;;;;-2.92;100.00;94997.31;2114369;28;20839;-78
2023/12/17 04:45:40;;;;;;;3.42;2.63;;;;;;;-2.94;100.00;95001.25;2114438;27;20467;-78
2023/12/17 04:46:43;;;;;;;3.13;2.50;;;;;;;-2.86;100.00;94990.91;2123211;27;20406;-78